Accueil
METAR-TAF:

METAR-TAF

Aéroports :

Saint-Gall, Suisse

Aéroport international Saint-Gall-Altenrhein

latitude: 47-29-06N, longitude: 009-33-43E, altitude: 398 m

Observation

Le bulletin a été fait il y a 11 minutes, à 22:50 UTC
Vent 4 kt de ouest/sud-ouest, variant entre sud/sud-ouest et ouest
Température 15°C
Humidité 72%
Pression 1025 hPa
Visibilité 10 km ou plus
pas de nuages en-dessous de 1500 mètres et pas de cumulonimbus.

METAR: LSZR 202250Z AUTO 24004KT 210V280 CAVOK 15/10 Q1025

Heure: 01:01 (23:01 UTC)

Prévision

Le bulletin a été fait il y a 8 heures et 36 minutes, à 14:25 UTC
Prévision valable du 20 à 15 UTC au 20 à 24 UTC
Vent 5 kt de nord
Visibilité 10 km ou plus
Nuages épars à une hauteur de 7000 ft
Evoluant progressivement
du 20 à 18 UTC au 20 à 21 UTC
Visibilité 10 km ou plus
pas de nuages en-dessous de 1500 mètres et pas de cumulonimbus.

TAF: LSZR 201425Z 2015/2024 35005KT 9999 SCT070 BECMG 2018/2021 CAVOK

Observations et prévisions météorologiques de plus de 4000 aéroports (messages METAR et TAF).

Les stations disponibles sont représentées par des disques jaunes et rouges sur la carte.

Passer la souris dessus pour voir le nom de la station.

Cliquer dessus pour voir les observations et prévisions météorologiques.

Pour changer de carte: cliquez sur les boutons verts avec une croix noire pour zoomer, sur le bouton vert avec un tiret pour effectuer un zoom arrière, ou sur les flèches vertes pour les cartes adjacentes.


METAR-TAF: